Time;durP1;ratioP1;P1;durP2;ratioP2;P2;SDS_P1;SDS_P2;PMS_P1;PMS_P2;Temp;Humidity;BMP_temperature;BMP_pressure;BME280_temperature;BME280_humidity;BME280_pressure;Samples;Min_cycle;Max_cycle;Signal;HPM_P1;HPM_P2
2024/01/05 00:00:00;;;;;;;7.85;2.50;;;;;;;;;;5042573;28;20835;-73
2024/01/05 00:02:28;;;;;;;4.50;2.20;;;;;;;;;;5038492;28;21110;-73
2024/01/05 00:04:55;;;;;;;7.30;2.10;;;;;;;;;;5033395;28;20431;-74
2024/01/05 00:07:25;;;;;;;5.15;2.15;;;;;;;;;;5027038;28;21395;-73
2024/01/05 00:09:52;;;;;;;6.82;2.30;;;;;;;;;;5043326;28;20437;-73
2024/01/05 00:12:19;;;;;;;5.13;2.17;;;;;;;;;;5041880;28;20832;-73
2024/01/05 00:14:46;;;;;;;4.03;1.90;;;;;;;;;;5038861;28;20430;-74
2024/01/05 00:17:14;;;;;;;5.75;2.03;;;;;;;;;;5032500;28;20430;-74
2024/01/05 00:19:41;;;;;;;9.13;2.07;;;;;;;;;;5036832;28;20494;-72
2024/01/05 00:22:08;;;;;;;5.03;1.98;;;;;;;;;;5041581;28;20542;-73
2024/01/05 00:24:39;;;;;;;5.95;1.83;;;;;;;;;;5040280;28;20484;-73
2024/01/05 00:27:07;;;;;;;5.65;2.20;;;;;;;;;;5048320;28;20425;-73
2024/01/05 00:29:34;;;;;;;11.88;2.40;;;;;;;;;;5038775;28;20897;-73
2024/01/05 00:32:01;;;;;;;8.73;2.47;;;;;;;;;;5041481;28;20433;-73
2024/01/05 00:34:28;;;;;;;6.68;2.50;;;;;;;;;;5032081;28;20913;-72
2024/01/05 00:36:56;;;;;;;5.40;2.00;;;;;;;;;;5046319;28;20435;-73
2024/01/05 00:39:23;;;;;;;4.83;2.00;;;;;;;;;;5041436;28;20525;-73
2024/01/05 00:41:50;;;;;;;5.05;2.05;;;;;;;;;;5043790;28;20521;-73
2024/01/05 00:44:17;;;;;;;6.10;2.35;;;;;;;;;;5045894;28;20429;-72
2024/01/05 00:46:45;;;;;;;5.35;2.22;;;;;;;;;;5047979;28;20893;-73
2024/01/05 00:49:16;;;;;;;6.50;2.30;;;;;;;;;;5039591;28;20427;-72
2024/01/05 00:51:43;;;;;;;5.05;2.00;;;;;;;;;;5044500;28;20504;-73
2024/01/05 00:54:11;;;;;;;5.43;2.03;;;;;;;;;;5040627;28;20429;-73
2024/01/05 00:56:39;;;;;;;5.80;2.22;;;;;;;;;;5031339;28;20782;-72
2024/01/05 00:59:07;;;;;;;8.73;2.30;;;;;;;;;;5031581;28;20492;-73
2024/01/05 01:01:34;;;;;;;8.17;2.20;;;;;;;;;;5039487;28;20505;-73
2024/01/05 01:04:01;;;;;;;6.63;2.15;;;;;;;;;;5045672;28;20429;-73
2024/01/05 01:06:28;;;;;;;7.95;2.47;;;;;;;;;;5051338;28;20429;-72
2024/01/05 01:08:56;;;;;;;8.10;2.00;;;;;;;;;;5030184;28;20450;-73
2024/01/05 01:11:24;;;;;;;3.95;2.20;;;;;;;;;;5043287;28;20433;-73
2024/01/05 01:13:54;;;;;;;6.97;2.60;;;;;;;;;;5045548;28;20441;-73
2024/01/05 01:16:21;;;;;;;9.90;3.15;;;;;;;;;;5030947;28;20462;-72
2024/01/05 01:18:49;;;;;;;6.47;2.30;;;;;;;;;;5032731;28;20432;-73
2024/01/05 01:21:16;;;;;;;7.05;1.90;;;;;;;;;;5041883;28;20429;-72
2024/01/05 01:23:43;;;;;;;6.60;2.25;;;;;;;;;;5033886;28;20892;-73
2024/01/05 01:26:11;;;;;;;9.80;2.40;;;;;;;;;;5031830;28;20477;-72
2024/01/05 01:28:38;;;;;;;6.40;2.08;;;;;;;;;;5032467;28;20457;-72
2024/01/05 01:31:05;;;;;;;5.90;2.53;;;;;;;;;;5038322;28;20516;-73
2024/01/05 01:33:32;;;;;;;8.20;2.47;;;;;;;;;;5031677;28;20427;-72
2024/01/05 01:36:00;;;;;;;6.85;2.65;;;;;;;;;;5029838;28;20453;-73
2024/01/05 01:38:27;;;;;;;8.50;2.53;;;;;;;;;;5046097;28;20433;-72
2024/01/05 01:40:56;;;;;;;8.63;2.90;;;;;;;;;;5043952;28;20516;-72
2024/01/05 01:43:27;;;;;;;10.40;3.10;;;;;;;;;;5041848;28;20918;-72
2024/01/05 01:45:59;;;;;;;7.97;3.07;;;;;;;;;;5042075;28;20884;-72
2024/01/05 01:48:27;;;;;;;10.75;3.92;;;;;;;;;;5040748;28;20457;-73
2024/01/05 01:50:56;;;;;;;6.85;2.83;;;;;;;;;;5043258;28;20431;-72
2024/01/05 01:53:24;;;;;;;6.70;2.70;;;;;;;;;;5041115;28;20431;-72
2024/01/05 01:55:52;;;;;;;10.95;3.08;;;;;;;;;;5030554;28;20519;-72
2024/01/05 01:58:21;;;;;;;8.52;2.85;;;;;;;;;;5037876;28;20542;-73
2024/01/05 02:00:49;;;;;;;9.30;3.20;;;;;;;;;;5050176;28;20428;-73
2024/01/05 02:03:18;;;;;;;8.98;3.35;;;;;;;;;;5049330;28;20807;-73
2024/01/05 02:05:47;;;;;;;9.88;3.25;;;;;;;;;;5029968;28;20437;-73
2024/01/05 02:08:15;;;;;;;11.18;3.72;;;;;;;;;;5030504;28;20447;-73
2024/01/05 02:10:43;;;;;;;11.00;3.65;;;;;;;;;;5034793;28;20438;-73
2024/01/05 02:13:10;;;;;;;12.50;3.88;;;;;;;;;;5036900;28;20458;-72
2024/01/05 02:15:37;;;;;;;11.07;3.20;;;;;;;;;;5048358;28;20465;-73
2024/01/05 02:18:14;;;;;;;9.20;3.50;;;;;;;;;;5034422;28;20838;-73
2024/01/05 02:20:46;;;;;;;8.93;3.28;;;;;;;;;;5030084;28;20441;-73
2024/01/05 02:23:21;;;;;;;9.70;3.22;;;;;;;;;;5039055;28;20434;-73
2024/01/05 02:25:48;;;;;;;9.40;3.50;;;;;;;;;;5030253;28;20429;-73
2024/01/05 02:28:15;;;;;;;11.33;3.50;;;;;;;;;;5029119;28;20488;-73
2024/01/05 02:30:48;;;;;;;8.77;3.38;;;;;;;;;;5033336;28;20511;-73
2024/01/05 02:33:15;;;;;;;8.90;3.83;;;;;;;;;;5034508;28;20426;-74
2024/01/05 02:35:45;;;;;;;12.70;3.47;;;;;;;;;;5037436;28;20785;-73
2024/01/05 02:38:12;;;;;;;10.02;3.78;;;;;;;;;;5037065;28;20487;-73
2024/01/05 02:40:40;;;;;;;9.55;3.65;;;;;;;;;;5035011;28;20825;-73
2024/01/05 02:43:07;;;;;;;9.37;3.40;;;;;;;;;;5031562;28;20442;-73
2024/01/05 02:45:35;;;;;;;9.63;3.38;;;;;;;;;;5045190;28;20486;-73
2024/01/05 02:48:02;;;;;;;8.90;3.50;;;;;;;;;;5035841;28;20441;-73
2024/01/05 02:50:30;;;;;;;8.77;3.97;;;;;;;;;;5031871;28;20488;-73
2024/01/05 02:52:57;;;;;;;9.53;3.53;;;;;;;;;;5037463;28;20484;-73
2024/01/05 02:55:24;;;;;;;11.13;3.47;;;;;;;;;;5045821;28;20971;-73
2024/01/05 02:57:54;;;;;;;9.60;3.65;;;;;;;;;;5039990;28;20483;-73
2024/01/05 03:00:24;;;;;;;8.52;3.40;;;;;;;;;;5048918;28;21038;-73
2024/01/05 03:02:51;;;;;;;9.47;3.57;;;;;;;;;;5040658;28;20886;-72
2024/01/05 03:05:18;;;;;;;12.75;3.42;;;;;;;;;;5040923;28;20510;-73
2024/01/05 03:07:46;;;;;;;7.25;2.85;;;;;;;;;;5029608;28;20511;-73
2024/01/05 03:10:13;;;;;;;9.00;3.30;;;;;;;;;;5034317;28;20481;-73
2024/01/05 03:12:40;;;;;;;12.43;3.97;;;;;;;;;;5036867;28;20466;-73
2024/01/05 03:15:08;;;;;;;8.13;3.00;;;;;;;;;;5035329;28;20919;-73
2024/01/05 03:17:35;;;;;;;8.35;3.00;;;;;;;;;;5037809;28;20435;-73
2024/01/05 03:20:03;;;;;;;6.22;2.95;;;;;;;;;;5033662;28;20499;-74
2024/01/05 03:22:30;;;;;;;6.65;2.70;;;;;;;;;;5046951;28;20483;-72
2024/01/05 03:25:01;;;;;;;10.27;2.75;;;;;;;;;;5035841;28;20432;-73
2024/01/05 03:27:36;;;;;;;5.65;2.78;;;;;;;;;;5044837;28;20460;-72
2024/01/05 03:30:03;;;;;;;8.27;2.70;;;;;;;;;;5028944;28;20423;-73
2024/01/05 03:32:31;;;;;;;7.38;2.83;;;;;;;;;;5037915;28;20439;-73
2024/01/05 03:35:00;;;;;;;6.72;2.90;;;;;;;;;;5040190;28;20849;-72
2024/01/05 03:37:28;;;;;;;6.20;2.33;;;;;;;;;;5046873;28;20429;-73
2024/01/05 03:39:55;;;;;;;8.90;2.78;;;;;;;;;;5029055;28;20438;-72
2024/01/05 03:42:22;;;;;;;7.88;2.65;;;;;;;;;;5045932;28;20532;-73
2024/01/05 03:44:55;;;;;;;9.05;2.40;;;;;;;;;;5044014;28;20432;-72
2024/01/05 03:47:22;;;;;;;6.40;2.42;;;;;;;;;;5041509;28;20435;-73
2024/01/05 03:49:50;;;;;;;11.03;2.63;;;;;;;;;;5052065;28;20903;-72
2024/01/05 03:52:22;;;;;;;5.95;2.40;;;;;;;;;;5044534;28;20437;-72
2024/01/05 03:54:55;;;;;;;9.45;2.75;;;;;;;;;;5043824;28;20515;-72
2024/01/05 03:57:23;;;;;;;6.57;2.58;;;;;;;;;;5036037;28;20961;-72
2024/01/05 03:59:51;;;;;;;6.72;2.40;;;;;;;;;;5044630;28;20436;-72
2024/01/05 04:02:18;;;;;;;6.03;2.22;;;;;;;;;;5045950;28;20455;-74
2024/01/05 04:04:45;;;;;;;7.40;2.20;;;;;;;;;;5040797;28;20426;-73
2024/01/05 04:07:12;;;;;;;9.33;2.40;;;;;;;;;;5039600;28;20916;-73
2024/01/05 04:09:40;;;;;;;7.47;2.28;;;;;;;;;;5033166;28;20523;-73
2024/01/05 04:12:07;;;;;;;4.47;2.30;;;;;;;;;;5038490;28;20490;-72
2024/01/05 04:14:35;;;;;;;6.28;2.15;;;;;;;;;;5048931;28;20430;-72
2024/01/05 04:17:02;;;;;;;9.80;2.60;;;;;;;;;;5040642;28;20481;-73
2024/01/05 04:19:30;;;;;;;6.90;2.55;;;;;;;;;;5040193;28;20429;-73
2024/01/05 04:21:58;;;;;;;6.70;2.10;;;;;;;;;;5033988;28;20526;-73
2024/01/05 04:24:28;;;;;;;7.60;2.20;;;;;;;;;;5037477;28;20465;-72
2024/01/05 04:26:55;;;;;;;5.78;2.22;;;;;;;;;;5031042;28;20437;-72
2024/01/05 04:29:22;;;;;;;6.20;2.28;;;;;;;;;;5047732;28;20441;-72
2024/01/05 04:31:49;;;;;;;5.00;2.10;;;;;;;;;;5034412;28;20528;-72
2024/01/05 04:34:16;;;;;;;4.60;2.30;;;;;;;;;;5046984;28;20826;-73
2024/01/05 04:36:44;;;;;;;6.25;2.28;;;;;;;;;;5039458;28;20796;-73
2024/01/05 04:39:14;;;;;;;5.43;2.22;;;;;;;;;;5037053;28;20462;-73
2024/01/05 04:41:41;;;;;;;4.88;2.00;;;;;;;;;;5041675;28;20965;-74
2024/01/05 04:44:08;;;;;;;4.68;2.30;;;;;;;;;;5037399;28;20514;-74
2024/01/05 04:46:35;;;;;;;8.13;2.17;;;;;;;;;;5036283;28;20435;-72
2024/01/05 04:49:02;;;;;;;7.30;2.17;;;;;;;;;;5041238;28;20492;-74
2024/01/05 04:51:29;;;;;;;4.93;2.40;;;;;;;;;;5042467;28;20433;-74
2024/01/05 04:53:57;;;;;;;6.68;2.40;;;;;;;;;;5039581;28;20434;-74
2024/01/05 04:56:24;;;;;;;7.50;2.42;;;;;;;;;;5039627;28;20495;-74
2024/01/05 04:58:51;;;;;;;9.75;2.58;;;;;;;;;;5043257;28;20479;-74
2024/01/05 05:01:19;;;;;;;9.07;2.50;;;;;;;;;;5045235;28;21144;-74
2024/01/05 05:03:46;;;;;;;6.47;2.33;;;;;;;;;;5050245;28;20923;-74
2024/01/05 05:06:13;;;;;;;6.53;2.55;;;;;;;;;;5038064;28;20458;-73
2024/01/05 05:08:40;;;;;;;6.63;2.53;;;;;;;;;;5032846;28;20429;-73
2024/01/05 05:11:11;;;;;;;8.35;2.92;;;;;;;;;;5037308;28;20433;-73
2024/01/05 05:13:40;;;;;;;5.53;2.30;;;;;;;;;;5032471;28;20438;-73
2024/01/05 05:16:09;;;;;;;9.85;2.90;;;;;;;;;;5031031;28;20431;-73
2024/01/05 05:18:36;;;;;;;7.00;2.40;;;;;;;;;;5038939;28;20857;-74
2024/01/05 05:21:06;;;;;;;8.35;2.63;;;;;;;;;;5033637;28;20967;-74
2024/01/05 05:23:33;;;;;;;5.55;2.40;;;;;;;;;;5034104;28;20435;-73
2024/01/05 05:26:03;;;;;;;7.10;2.40;;;;;;;;;;5044289;28;20482;-74
2024/01/05 05:28:33;;;;;;;6.67;2.20;;;;;;;;;;5039254;28;20430;-74
2024/01/05 05:31:03;;;;;;;9.10;2.50;;;;;;;;;;5037953;28;20435;-73
2024/01/05 05:33:30;;;;;;;7.63;2.55;;;;;;;;;;5047138;28;20429;-74
2024/01/05 05:35:58;;;;;;;9.57;2.90;;;;;;;;;;5046630;28;20431;-73
2024/01/05 05:38:25;;;;;;;6.30;2.38;;;;;;;;;;5046801;28;20947;-73
2024/01/05 05:40:54;;;;;;;6.60;2.63;;;;;;;;;;5038429;28;20443;-74
2024/01/05 05:43:22;;;;;;;7.03;2.30;;;;;;;;;;5045895;28;20637;-73
2024/01/05 05:45:53;;;;;;;7.75;2.47;;;;;;;;;;5039526;28;20433;-74
2024/01/05 05:48:20;;;;;;;7.93;2.20;;;;;;;;;;5045258;28;21463;-73
2024/01/05 05:50:47;;;;;;;10.25;2.40;;;;;;;;;;5041075;28;20434;-73
2024/01/05 05:53:14;;;;;;;5.25;2.10;;;;;;;;;;5042528;28;20439;-74
2024/01/05 05:55:44;;;;;;;7.45;2.55;;;;;;;;;;5046242;28;20551;-74
2024/01/05 05:58:11;;;;;;;5.78;2.35;;;;;;;;;;5045346;28;20433;-73
2024/01/05 06:00:39;;;;;;;7.38;2.70;;;;;;;;;;5035199;28;20514;-74
2024/01/05 06:03:06;;;;;;;5.40;2.30;;;;;;;;;;5045146;28;20437;-74
2024/01/05 06:05:36;;;;;;;7.50;2.75;;;;;;;;;;5039864;28;20429;-74
2024/01/05 06:08:04;;;;;;;9.82;2.67;;;;;;;;;;5038544;28;20470;-72
2024/01/05 06:10:31;;;;;;;7.35;2.30;;;;;;;;;;5045319;28;20935;-72
2024/01/05 06:13:02;;;;;;;6.70;2.47;;;;;;;;;;5037670;28;20433;-72
2024/01/05 06:15:29;;;;;;;9.68;2.72;;;;;;;;;;5030842;28;20767;-72
2024/01/05 06:17:58;;;;;;;3.97;2.42;;;;;;;;;;5033338;28;20946;-72
2024/01/05 06:20:25;;;;;;;5.05;2.38;;;;;;;;;;5029691;28;20493;-71
2024/01/05 06:22:53;;;;;;;6.78;2.78;;;;;;;;;;5040836;28;20946;-71
2024/01/05 06:25:23;;;;;;;5.90;2.27;;;;;;;;;;5034604;28;20474;-71
2024/01/05 06:27:50;;;;;;;6.97;2.33;;;;;;;;;;5031117;28;20836;-72
2024/01/05 06:30:17;;;;;;;6.28;2.25;;;;;;;;;;5034324;28;20431;-71
2024/01/05 06:32:45;;;;;;;6.22;2.42;;;;;;;;;;5049514;28;20432;-71
2024/01/05 06:35:15;;;;;;;9.60;2.60;;;;;;;;;;5048939;28;21095;-71
2024/01/05 06:37:42;;;;;;;8.95;2.67;;;;;;;;;;5041277;28;20440;-71
2024/01/05 06:40:12;;;;;;;8.32;2.50;;;;;;;;;;5044646;28;20431;-71
2024/01/05 06:42:39;;;;;;;5.78;1.90;;;;;;;;;;5038563;28;20436;-71
2024/01/05 06:45:07;;;;;;;3.88;2.15;;;;;;;;;;5044758;28;21012;-71
2024/01/05 06:47:34;;;;;;;6.80;2.45;;;;;;;;;;5038513;28;20425;-71
2024/01/05 06:50:02;;;;;;;5.18;2.25;;;;;;;;;;5040398;28;20429;-71
2024/01/05 06:52:29;;;;;;;7.05;2.40;;;;;;;;;;5041122;28;20429;-72
2024/01/05 06:54:56;;;;;;;4.88;2.40;;;;;;;;;;5039418;28;20429;-71
2024/01/05 06:57:29;;;;;;;6.80;2.58;;;;;;;;;;5040296;28;20424;-71
2024/01/05 06:59:58;;;;;;;5.60;2.20;;;;;;;;;;5040144;28;20427;-71
2024/01/05 07:02:25;;;;;;;5.97;2.40;;;;;;;;;;5036987;28;20894;-71
2024/01/05 07:04:52;;;;;;;4.95;2.13;;;;;;;;;;5037275;28;20458;-71
2024/01/05 07:07:20;;;;;;;6.67;2.50;;;;;;;;;;5042626;28;20935;-72
2024/01/05 07:09:47;;;;;;;5.22;2.45;;;;;;;;;;5037470;28;20487;-71
2024/01/05 07:12:14;;;;;;;7.15;2.40;;;;;;;;;;5039004;28;20442;-72
2024/01/05 07:14:42;;;;;;;7.50;2.47;;;;;;;;;;5030609;28;20480;-71
2024/01/05 07:17:09;;;;;;;7.67;2.20;;;;;;;;;;5039455;28;20433;-71
2024/01/05 07:19:36;;;;;;;5.63;2.38;;;;;;;;;;5039463;28;20979;-71
2024/01/05 07:22:06;;;;;;;7.47;2.70;;;;;;;;;;5045000;28;20456;-71
2024/01/05 07:24:35;;;;;;;5.32;2.45;;;;;;;;;;5040540;28;20433;-71
2024/01/05 07:27:02;;;;;;;7.80;2.70;;;;;;;;;;5039771;28;20433;-71
2024/01/05 07:29:29;;;;;;;6.78;2.28;;;;;;;;;;5037372;28;20433;-71
2024/01/05 07:31:59;;;;;;;6.85;2.60;;;;;;;;;;5030972;28;20426;-71
2024/01/05 07:34:27;;;;;;;6.85;2.30;;;;;;;;;;5037115;28;20438;-71
2024/01/05 07:36:54;;;;;;;6.05;2.15;;;;;;;;;;5044252;28;20479;-71
2024/01/05 07:39:21;;;;;;;6.47;2.40;;;;;;;;;;5038766;28;20927;-71
2024/01/05 07:41:50;;;;;;;5.57;2.33;;;;;;;;;;5033626;28;20516;-71
2024/01/05 07:44:17;;;;;;;4.97;2.25;;;;;;;;;;5043134;28;20928;-71
2024/01/05 07:46:45;;;;;;;6.20;2.35;;;;;;;;;;5037482;28;20432;-71
2024/01/05 07:49:12;;;;;;;5.53;2.37;;;;;;;;;;5036002;28;20469;-71
2024/01/05 07:51:40;;;;;;;5.50;2.38;;;;;;;;;;5038907;28;20915;-71
2024/01/05 07:54:08;;;;;;;6.47;2.40;;;;;;;;;;5039249;28;20433;-71
2024/01/05 07:56:38;;;;;;;4.88;2.40;;;;;;;;;;5034715;28;20505;-72
2024/01/05 07:59:05;;;;;;;10.90;2.60;;;;;;;;;;5039129;28;20482;-71
2024/01/05 08:01:32;;;;;;;5.72;1.95;;;;;;;;;;5036438;28;20427;-71
2024/01/05 08:04:00;;;;;;;5.93;2.13;;;;;;;;;;5045741;28;20421;-71
2024/01/05 08:06:30;;;;;;;5.00;2.08;;;;;;;;;;5032000;28;20439;-71
2024/01/05 08:08:57;;;;;;;3.85;1.60;;;;;;;;;;5034165;28;20481;-72
2024/01/05 08:11:27;;;;;;;6.25;2.10;;;;;;;;;;5042547;28;20495;-71
2024/01/05 08:13:54;;;;;;;7.68;1.95;;;;;;;;;;5033245;28;20437;-71
2024/01/05 08:16:25;;;;;;;7.10;2.25;;;;;;;;;;5029482;28;21241;-71
2024/01/05 08:18:52;;;;;;;7.07;2.42;;;;;;;;;;5040889;28;20479;-71
2024/01/05 08:21:23;;;;;;;5.80;2.30;;;;;;;;;;5041361;28;20499;-72
2024/01/05 08:23:51;;;;;;;5.03;1.80;;;;;;;;;;5037817;28;20425;-71
2024/01/05 08:26:18;;;;;;;5.20;2.05;;;;;;;;;;5037718;28;20460;-71
2024/01/05 08:28:48;;;;;;;8.20;2.53;;;;;;;;;;5042491;28;20487;-71
2024/01/05 08:31:15;;;;;;;3.67;1.83;;;;;;;;;;5036870;28;20442;-71
2024/01/05 08:33:43;;;;;;;4.90;2.08;;;;;;;;;;5041465;28;20785;-71
2024/01/05 08:36:10;;;;;;;6.82;2.38;;;;;;;;;;5035778;28;20835;-70
2024/01/05 08:38:40;;;;;;;4.80;1.92;;;;;;;;;;5032476;28;20442;-71
2024/01/05 08:41:07;;;;;;;5.78;2.60;;;;;;;;;;5040756;28;20434;-71
2024/01/05 08:43:34;;;;;;;9.75;2.35;;;;;;;;;;5042359;28;20526;-71
2024/01/05 08:46:05;;;;;;;6.55;2.60;;;;;;;;;;5038883;28;20988;-72
2024/01/05 08:48:35;;;;;;;6.63;2.85;;;;;;;;;;5040352;28;20597;-71
2024/01/05 08:51:02;;;;;;;5.47;2.57;;;;;;;;;;5035676;28;20488;-71
2024/01/05 08:53:30;;;;;;;7.00;2.50;;;;;;;;;;5045101;28;20780;-71
2024/01/05 08:55:57;;;;;;;5.90;2.13;;;;;;;;;;5031922;28;20435;-71
2024/01/05 08:58:24;;;;;;;7.03;2.45;;;;;;;;;;5035711;28;20434;-72
2024/01/05 09:00:51;;;;;;;5.35;2.28;;;;;;;;;;5046337;28;20437;-72
2024/01/05 09:03:19;;;;;;;4.93;2.30;;;;;;;;;;5035806;28;20512;-72
2024/01/05 09:05:46;;;;;;;7.10;2.50;;;;;;;;;;5037649;28;20432;-72
2024/01/05 09:08:14;;;;;;;7.50;2.50;;;;;;;;;;5035673;28;20453;-72
2024/01/05 09:10:41;;;;;;;8.05;2.35;;;;;;;;;;5039289;28;20441;-72
2024/01/05 09:13:08;;;;;;;6.15;2.55;;;;;;;;;;5040418;28;20426;-72
2024/01/05 09:15:35;;;;;;;7.00;2.50;;;;;;;;;;5038613;28;20458;-72
2024/01/05 09:18:04;;;;;;;4.85;2.33;;;;;;;;;;5038662;28;20987;-72
2024/01/05 09:20:32;;;;;;;5.40;2.20;;;;;;;;;;5044197;28;20428;-72
2024/01/05 09:23:00;;;;;;;4.43;1.90;;;;;;;;;;5037685;28;20884;-72
2024/01/05 09:25:29;;;;;;;8.43;2.60;;;;;;;;;;5034615;28;20523;-72
2024/01/05 09:27:56;;;;;;;4.35;1.90;;;;;;;;;;5039889;28;20434;-71
2024/01/05 09:30:24;;;;;;;4.27;1.90;;;;;;;;;;5043612;28;20918;-72
2024/01/05 09:32:52;;;;;;;5.90;1.90;;;;;;;;;;5033572;28;20431;-71
2024/01/05 09:35:21;;;;;;;4.15;1.90;;;;;;;;;;5047527;28;20498;-72
2024/01/05 09:37:52;;;;;;;5.20;2.08;;;;;;;;;;5041674;28;20483;-72
2024/01/05 09:40:20;;;;;;;4.20;2.00;;;;;;;;;;5037534;28;20462;-71
2024/01/05 09:42:51;;;;;;;5.28;2.10;;;;;;;;;;5038128;28;21274;-71
2024/01/05 09:45:22;;;;;;;4.70;1.85;;;;;;;;;;5037782;28;20426;-71
2024/01/05 09:47:49;;;;;;;4.38;1.92;;;;;;;;;;5038326;28;20473;-71
2024/01/05 09:50:17;;;;;;;4.40;2.20;;;;;;;;;;5045120;28;20433;-72
2024/01/05 09:52:47;;;;;;;6.07;2.05;;;;;;;;;;5043837;28;20464;-72
2024/01/05 09:55:14;;;;;;;5.22;2.13;;;;;;;;;;5042075;28;20430;-71
2024/01/05 09:57:45;;;;;;;4.13;1.88;;;;;;;;;;5043434;28;20436;-71
2024/01/05 10:00:14;;;;;;;7.55;2.10;;;;;;;;;;5039768;28;20433;-71
2024/01/05 10:02:53;;;;;;;2.72;1.80;;;;;;;;;;5039670;28;20487;-71
2024/01/05 10:05:20;;;;;;;5.18;2.08;;;;;;;;;;5032105;28;20439;-72
2024/01/05 10:07:50;;;;;;;3.70;2.03;;;;;;;;;;5037696;28;20454;-72
2024/01/05 10:10:20;;;;;;;6.85;2.50;;;;;;;;;;5040532;28;20456;-72
2024/01/05 10:12:50;;;;;;;4.40;2.05;;;;;;;;;;5047987;28;20428;-71
2024/01/05 10:15:17;;;;;;;5.82;2.28;;;;;;;;;;5041442;28;20435;-72
2024/01/05 10:17:44;;;;;;;6.47;2.08;;;;;;;;;;5041023;28;20443;-72
2024/01/05 10:20:13;;;;;;;3.63;2.40;;;;;;;;;;5043488;28;20454;-72
2024/01/05 10:22:46;;;;;;;6.68;2.67;;;;;;;;;;5040372;28;20437;-71
2024/01/05 10:25:21;;;;;;;6.10;2.40;;;;;;;;;;5046237;28;20483;-72
2024/01/05 10:27:50;;;;;;;9.50;2.60;;;;;;;;;;5043302;28;20433;-72
2024/01/05 10:30:25;;;;;;;4.40;2.20;;;;;;;;;;5044685;28;20839;-71
2024/01/05 10:33:02;;;;;;;5.20;2.20;;;;;;;;;;5038177;28;20429;-71
2024/01/05 10:35:30;;;;;;;6.35;2.20;;;;;;;;;;5037487;28;20986;-72
2024/01/05 10:38:09;;;;;;;4.72;2.08;;;;;;;;;;5044600;28;20448;-72
2024/01/05 10:40:39;;;;;;;5.32;2.17;;;;;;;;;;5035287;28;20435;-72
2024/01/05 10:43:10;;;;;;;4.50;2.20;;;;;;;;;;5041095;28;20958;-72
2024/01/05 10:45:40;;;;;;;4.03;2.55;;;;;;;;;;5045043;28;20879;-72
2024/01/05 10:48:09;;;;;;;3.65;1.45;;;;;;;;;;5041950;28;20441;-72
2024/01/05 10:50:43;;;;;;;4.50;2.10;;;;;;;;;;5047063;28;20433;-72
2024/01/05 10:53:15;;;;;;;5.38;2.15;;;;;;;;;;5039230;28;20426;-72
2024/01/05 10:55:42;;;;;;;3.78;2.13;;;;;;;;;;5035740;28;20433;-71
2024/01/05 10:58:11;;;;;;;9.20;1.75;;;;;;;;;;5034031;28;20439;-72
2024/01/05 11:00:39;;;;;;;4.97;1.50;;;;;;;;;;5037740;28;20487;-71
2024/01/05 11:03:18;;;;;;;3.45;1.40;;;;;;;;;;5035039;28;20433;-71
2024/01/05 11:05:48;;;;;;;7.85;1.90;;;;;;;;;;5043490;28;20450;-72
2024/01/05 11:08:26;;;;;;;5.93;2.20;;;;;;;;;;5042139;28;20434;-72
2024/01/05 11:11:08;;;;;;;3.40;1.57;;;;;;;;;;5041122;28;20503;-72
2024/01/05 11:13:37;;;;;;;3.78;1.67;;;;;;;;;;5043083;28;20954;-72
2024/01/05 11:16:12;;;;;;;5.15;1.60;;;;;;;;;;5045751;28;20512;-72
2024/01/05 11:18:55;;;;;;;3.38;1.35;;;;;;;;;;5044405;28;20483;-71
2024/01/05 11:21:28;;;;;;;4.20;1.63;;;;;;;;;;5039417;28;20440;-71
2024/01/05 11:23:55;;;;;;;3.45;1.30;;;;;;;;;;5040465;28;20451;-71
2024/01/05 11:26:34;;;;;;;2.40;1.27;;;;;;;;;;5044389;28;20432;-72
2024/01/05 11:29:03;;;;;;;2.28;1.50;;;;;;;;;;5046158;28;20421;-71
2024/01/05 11:31:46;;;;;;;2.15;1.20;;;;;;;;;;5028155;28;20442;-71
2024/01/05 11:34:34;;;;;;;3.67;1.45;;;;;;;;;;5029963;28;20500;-71
2024/01/05 11:37:04;;;;;;;3.03;1.37;;;;;;;;;;5042423;28;20429;-71
2024/01/05 11:39:38;;;;;;;5.45;1.60;;;;;;;;;;5033678;28;20433;-71
2024/01/05 11:42:05;;;;;;;3.92;1.30;;;;;;;;;;5031608;28;20434;-71
2024/01/05 11:44:36;;;;;;;4.93;1.45;;;;;;;;;;5037220;28;20493;-71
2024/01/05 11:47:06;;;;;;;4.32;1.35;;;;;;;;;;5043677;28;20433;-71
2024/01/05 11:49:41;;;;;;;3.85;1.25;;;;;;;;;;5034679;28;20430;-70
2024/01/05 11:52:10;;;;;;;1.95;1.30;;;;;;;;;;5043552;28;20504;-71
2024/01/05 11:54:37;;;;;;;4.70;1.50;;;;;;;;;;5038818;28;20924;-71
2024/01/05 11:57:04;;;;;;;4.25;1.10;;;;;;;;;;5044869;28;20512;-71
2024/01/05 11:59:31;;;;;;;6.40;1.20;;;;;;;;;;5040129;28;20808;-71
2024/01/05 12:02:03;;;;;;;4.90;1.42;;;;;;;;;;5047497;28;20429;-71
2024/01/05 12:04:44;;;;;;;2.30;1.13;;;;;;;;;;5039167;28;20510;-71
2024/01/05 12:07:18;;;;;;;2.95;1.20;;;;;;;;;;5048530;28;20429;-71
2024/01/05 12:09:45;;;;;;;4.07;1.25;;;;;;;;;;5042174;28;20436;-72
2024/01/05 12:12:18;;;;;;;4.10;1.30;;;;;;;;;;5041849;28;20433;-72
2024/01/05 12:14:46;;;;;;;3.15;1.40;;;;;;;;;;5040372;28;20503;-72
2024/01/05 12:17:16;;;;;;;3.17;1.60;;;;;;;;;;5032628;28;20784;-72
2024/01/05 12:19:43;;;;;;;3.17;1.00;;;;;;;;;;5030828;28;20911;-72
2024/01/05 12:22:11;;;;;;;2.97;1.40;;;;;;;;;;5044680;28;20432;-72
2024/01/05 12:24:39;;;;;;;3.13;1.15;;;;;;;;;;5043199;28;20932;-72
2024/01/05 12:27:06;;;;;;;4.05;1.10;;;;;;;;;;5048333;28;20903;-72
2024/01/05 12:29:37;;;;;;;2.20;0.98;;;;;;;;;;5043615;28;20536;-72
2024/01/05 12:32:07;;;;;;;2.13;1.07;;;;;;;;;;5043005;28;20434;-72
2024/01/05 12:34:34;;;;;;;3.22;1.20;;;;;;;;;;5038930;28;20502;-72
2024/01/05 12:37:05;;;;;;;1.85;1.17;;;;;;;;;;5032513;28;20457;-72
2024/01/05 12:39:33;;;;;;;1.25;0.85;;;;;;;;;;5045527;28;20497;-72
2024/01/05 12:42:00;;;;;;;1.73;0.80;;;;;;;;;;5039303;28;20962;-72
2024/01/05 12:44:27;;;;;;;2.33;0.93;;;;;;;;;;5034913;28;20503;-72
2024/01/05 12:46:54;;;;;;;2.40;0.88;;;;;;;;;;5035461;28;20493;-72
2024/01/05 12:49:22;;;;;;;3.13;1.00;;;;;;;;;;5047164;28;20497;-72
2024/01/05 12:51:53;;;;;;;2.95;0.80;;;;;;;;;;5040044;28;20718;-71
2024/01/05 12:54:21;;;;;;;1.07;0.70;;;;;;;;;;5031586;28;20442;-72
2024/01/05 12:56:54;;;;;;;1.75;0.88;;;;;;;;;;5032659;28;20466;-70
2024/01/05 12:59:21;;;;;;;2.55;0.90;;;;;;;;;;5039715;28;20862;-70
2024/01/05 13:01:57;;;;;;;2.00;1.00;;;;;;;;;;5041878;28;20439;-70
2024/01/05 13:04:33;;;;;;;3.50;0.80;;;;;;;;;;5042164;28;20808;-70
2024/01/05 13:07:09;;;;;;;0.70;0.70;;;;;;;;;;5040979;28;20529;-70
2024/01/05 13:09:41;;;;;;;1.55;0.80;;;;;;;;;;5038946;28;20442;-70
2024/01/05 13:12:10;;;;;;;1.60;0.80;;;;;;;;;;5041168;28;20522;-71
2024/01/05 13:14:37;;;;;;;3.80;0.90;;;;;;;;;;5042762;28;20534;-71
2024/01/05 13:17:08;;;;;;;1.33;0.90;;;;;;;;;;5051053;28;20436;-71
2024/01/05 13:19:36;;;;;;;1.50;0.90;;;;;;;;;;5043599;28;20860;-71
2024/01/05 13:22:09;;;;;;;2.92;0.80;;;;;;;;;;5042400;28;20432;-71
2024/01/05 13:24:36;;;;;;;2.70;0.82;;;;;;;;;;5042153;28;20443;-71
2024/01/05 13:27:08;;;;;;;3.25;0.80;;;;;;;;;;5041684;28;20971;-71
2024/01/05 13:29:35;;;;;;;1.93;0.70;;;;;;;;;;5038596;28;20522;-71
2024/01/05 13:32:02;;;;;;;1.50;0.80;;;;;;;;;;5040178;28;20433;-71
2024/01/05 13:34:29;;;;;;;1.55;0.80;;;;;;;;;;5038349;28;20497;-71
2024/01/05 13:37:00;;;;;;;2.60;0.77;;;;;;;;;;5037400;28;20427;-71
2024/01/05 13:39:27;;;;;;;2.80;0.82;;;;;;;;;;5037615;28;20441;-71
2024/01/05 13:41:54;;;;;;;2.45;1.00;;;;;;;;;;5037077;28;20433;-71
2024/01/05 13:44:26;;;;;;;3.17;0.90;;;;;;;;;;5049101;28;20889;-71
2024/01/05 13:46:53;;;;;;;2.25;1.00;;;;;;;;;;5042447;28;20468;-71
2024/01/05 13:49:20;;;;;;;3.72;1.00;;;;;;;;;;5041854;28;20966;-70
2024/01/05 13:51:53;;;;;;;1.27;0.80;;;;;;;;;;5041100;28;20563;-71
2024/01/05 13:54:21;;;;;;;0.80;0.80;;;;;;;;;;5048427;28;20483;-71
2024/01/05 13:56:48;;;;;;;0.90;0.88;;;;;;;;;;5049444;28;21134;-71
2024/01/05 13:59:15;;;;;;;3.22;1.00;;;;;;;;;;5031346;28;20450;-71
2024/01/05 14:01:43;;;;;;;2.00;0.90;;;;;;;;;;5035911;28;20429;-71
2024/01/05 14:04:11;;;;;;;2.00;1.00;;;;;;;;;;5031751;28;20434;-71
2024/01/05 14:06:41;;;;;;;2.40;0.80;;;;;;;;;;5030141;28;20885;-71
2024/01/05 14:09:08;;;;;;;1.80;0.90;;;;;;;;;;5046368;28;20433;-71
2024/01/05 14:11:35;;;;;;;1.85;0.95;;;;;;;;;;5044984;28;20438;-71
2024/01/05 14:14:03;;;;;;;2.55;0.90;;;;;;;;;;5037977;28;20462;-71
2024/01/05 14:16:30;;;;;;;1.70;1.00;;;;;;;;;;5040970;28;20465;-71
2024/01/05 14:19:01;;;;;;;1.40;0.70;;;;;;;;;;5042150;28;20481;-71
2024/01/05 14:21:29;;;;;;;1.20;0.63;;;;;;;;;;5036798;28;20426;-71
2024/01/05 14:23:56;;;;;;;0.95;0.63;;;;;;;;;;5040116;28;20515;-71
2024/01/05 14:26:27;;;;;;;0.98;0.73;;;;;;;;;;5047422;28;20433;-71
2024/01/05 14:28:55;;;;;;;1.75;0.90;;;;;;;;;;5034346;28;20431;-71
2024/01/05 14:31:29;;;;;;;1.83;0.80;;;;;;;;;;5048141;28;20946;-71
2024/01/05 14:34:00;;;;;;;1.60;0.90;;;;;;;;;;5049002;28;20432;-71
2024/01/05 14:36:27;;;;;;;2.22;0.85;;;;;;;;;;5034119;28;20433;-71
2024/01/05 14:38:55;;;;;;;1.10;0.95;;;;;;;;;;5048005;28;20433;-71
2024/01/05 14:41:22;;;;;;;3.10;0.70;;;;;;;;;;5045855;28;20505;-71
2024/01/05 14:43:55;;;;;;;2.00;0.90;;;;;;;;;;5036137;28;20971;-72
2024/01/05 14:46:26;;;;;;;1.67;1.00;;;;;;;;;;5031221;28;21670;-72
2024/01/05 14:48:53;;;;;;;0.75;0.55;;;;;;;;;;5040315;28;20514;-72
2024/01/05 14:51:23;;;;;;;1.45;1.00;;;;;;;;;;5031483;28;20441;-72